sensor_id;sensor_type;location;lat;lon;timestamp;pressure;altitude;pressure_sealevel;temperature
14851;BMP180;7517;48.400;11.770;2023-05-07T00:01:58;96398.00;;;16.50
14851;BMP180;7517;48.400;11.770;2023-05-07T00:04:25;96403.00;;;16.50
14851;BMP180;7517;48.400;11.770;2023-05-07T00:06:53;96407.00;;;16.50
14851;BMP180;7517;48.400;11.770;2023-05-07T00:09:22;96403.00;;;16.50
14851;BMP180;7517;48.400;11.770;2023-05-07T00:11:50;96407.00;;;16.40
14851;BMP180;7517;48.400;11.770;2023-05-07T00:14:17;96404.00;;;16.40
14851;BMP180;7517;48.400;11.770;2023-05-07T00:16:44;96399.00;;;16.40
14851;BMP180;7517;48.400;11.770;2023-05-07T00:19:12;96411.00;;;16.40
14851;BMP180;7517;48.400;11.770;2023-05-07T00:21:39;96407.00;;;16.40
14851;BMP180;7517;48.400;11.770;2023-05-07T00:24:06;96401.00;;;16.40
14851;BMP180;7517;48.400;11.770;2023-05-07T00:26:35;96404.00;;;16.40
14851;BMP180;7517;48.400;11.770;2023-05-07T00:29:04;96402.00;;;16.40
14851;BMP180;7517;48.400;11.770;2023-05-07T00:31:31;96397.00;;;16.40
14851;BMP180;7517;48.400;11.770;2023-05-07T00:33:58;96396.00;;;16.40
14851;BMP180;7517;48.400;11.770;2023-05-07T00:36:25;96395.00;;;16.40
14851;BMP180;7517;48.400;11.770;2023-05-07T00:38:54;96397.00;;;16.40
14851;BMP180;7517;48.400;11.770;2023-05-07T00:41:22;96386.00;;;16.40
14851;BMP180;7517;48.400;11.770;2023-05-07T00:43:51;96389.00;;;16.40
14851;BMP180;7517;48.400;11.770;2023-05-07T00:46:21;96392.00;;;16.30
14851;BMP180;7517;48.400;11.770;2023-05-07T00:48:50;96386.00;;;16.30
14851;BMP180;7517;48.400;11.770;2023-05-07T00:51:18;96380.00;;;16.30
14851;BMP180;7517;48.400;11.770;2023-05-07T00:53:46;96386.00;;;16.30
14851;BMP180;7517;48.400;11.770;2023-05-07T00:56:13;96380.00;;;16.20
14851;BMP180;7517;48.400;11.770;2023-05-07T00:58:41;96385.00;;;16.20
14851;BMP180;7517;48.400;11.770;2023-05-07T01:01:10;96382.00;;;16.20
14851;BMP180;7517;48.400;11.770;2023-05-07T01:03:37;96386.00;;;16.20
14851;BMP180;7517;48.400;11.770;2023-05-07T01:06:07;96376.00;;;16.20
14851;BMP180;7517;48.400;11.770;2023-05-07T01:08:35;96377.00;;;16.20
14851;BMP180;7517;48.400;11.770;2023-05-07T01:11:06;96375.00;;;16.20
14851;BMP180;7517;48.400;11.770;2023-05-07T01:13:35;96386.00;;;16.20
14851;BMP180;7517;48.400;11.770;2023-05-07T01:16:04;96378.00;;;16.20
14851;BMP180;7517;48.400;11.770;2023-05-07T01:18:35;96381.00;;;16.20
14851;BMP180;7517;48.400;11.770;2023-05-07T01:21:05;96385.00;;;16.20
14851;BMP180;7517;48.400;11.770;2023-05-07T01:23:34;96380.00;;;16.20
14851;BMP180;7517;48.400;11.770;2023-05-07T01:26:02;96383.00;;;16.10
14851;BMP180;7517;48.400;11.770;2023-05-07T01:28:29;96390.00;;;16.10
14851;BMP180;7517;48.400;11.770;2023-05-07T01:31:01;96386.00;;;16.10
14851;BMP180;7517;48.400;11.770;2023-05-07T01:33:32;96374.00;;;16.10
14851;BMP180;7517;48.400;11.770;2023-05-07T01:36:03;96376.00;;;16.10
14851;BMP180;7517;48.400;11.770;2023-05-07T01:38:34;96368.00;;;16.10
14851;BMP180;7517;48.400;11.770;2023-05-07T01:41:05;96377.00;;;16.10
14851;BMP180;7517;48.400;11.770;2023-05-07T01:43:33;96372.00;;;16.10
14851;BMP180;7517;48.400;11.770;2023-05-07T01:46:02;96374.00;;;16.10
14851;BMP180;7517;48.400;11.770;2023-05-07T01:48:31;96363.00;;;16.10
14851;BMP180;7517;48.400;11.770;2023-05-07T01:51:00;96363.00;;;16.10
14851;BMP180;7517;48.400;11.770;2023-05-07T01:53:28;96374.00;;;16.10
14851;BMP180;7517;48.400;11.770;2023-05-07T01:55:56;96369.00;;;16.10
14851;BMP180;7517;48.400;11.770;2023-05-07T01:58:23;96376.00;;;16.00
14851;BMP180;7517;48.400;11.770;2023-05-07T02:00:51;96378.00;;;16.00
14851;BMP180;7517;48.400;11.770;2023-05-07T02:03:18;96381.00;;;16.00
14851;BMP180;7517;48.400;11.770;2023-05-07T02:05:45;96381.00;;;15.90
14851;BMP180;7517;48.400;11.770;2023-05-07T02:08:12;96379.00;;;15.90
14851;BMP180;7517;48.400;11.770;2023-05-07T02:10:40;96380.00;;;15.90
14851;BMP180;7517;48.400;11.770;2023-05-07T02:13:09;96372.00;;;15.90
14851;BMP180;7517;48.400;11.770;2023-05-07T02:15:36;96377.00;;;15.90
14851;BMP180;7517;48.400;11.770;2023-05-07T02:18:07;96384.00;;;15.90
14851;BMP180;7517;48.400;11.770;2023-05-07T02:20:35;96377.00;;;15.90
14851;BMP180;7517;48.400;11.770;2023-05-07T02:23:02;96389.00;;;15.90
14851;BMP180;7517;48.400;11.770;2023-05-07T02:25:29;96387.00;;;15.90
14851;BMP180;7517;48.400;11.770;2023-05-07T02:27:58;96380.00;;;15.90
14851;BMP180;7517;48.400;11.770;2023-05-07T02:30:28;96383.00;;;15.90
14851;BMP180;7517;48.400;11.770;2023-05-07T02:32:55;96387.00;;;15.90
14851;BMP180;7517;48.400;11.770;2023-05-07T02:35:24;96378.00;;;15.90
14851;BMP180;7517;48.400;11.770;2023-05-07T02:37:51;96380.00;;;15.90
14851;BMP180;7517;48.400;11.770;2023-05-07T02:40:19;96383.00;;;15.90
14851;BMP180;7517;48.400;11.770;2023-05-07T02:42:46;96379.00;;;15.90
14851;BMP180;7517;48.400;11.770;2023-05-07T02:45:13;96376.00;;;15.90
14851;BMP180;7517;48.400;11.770;2023-05-07T02:47:42;96377.00;;;15.90
14851;BMP180;7517;48.400;11.770;2023-05-07T02:50:10;96374.00;;;15.90
14851;BMP180;7517;48.400;11.770;2023-05-07T02:52:38;96383.00;;;15.90
14851;BMP180;7517;48.400;11.770;2023-05-07T02:55:07;96375.00;;;15.90
14851;BMP180;7517;48.400;11.770;2023-05-07T02:57:34;96378.00;;;15.80
14851;BMP180;7517;48.400;11.770;2023-05-07T03:00:12;96366.00;;;15.80
14851;BMP180;7517;48.400;11.770;2023-05-07T03:02:42;96370.00;;;15.80
14851;BMP180;7517;48.400;11.770;2023-05-07T03:05:10;96377.00;;;15.80
14851;BMP180;7517;48.400;11.770;2023-05-07T03:07:37;96378.00;;;15.70
14851;BMP180;7517;48.400;11.770;2023-05-07T03:10:06;96375.00;;;15.70
14851;BMP180;7517;48.400;11.770;2023-05-07T03:12:34;96375.00;;;15.70
14851;BMP180;7517;48.400;11.770;2023-05-07T03:15:02;96372.00;;;15.70
14851;BMP180;7517;48.400;11.770;2023-05-07T03:17:30;96369.00;;;15.60
14851;BMP180;7517;48.400;11.770;2023-05-07T03:19:58;96369.00;;;15.60
14851;BMP180;7517;48.400;11.770;2023-05-07T03:22:26;96367.00;;;15.60
14851;BMP180;7517;48.400;11.770;2023-05-07T03:24:53;96369.00;;;15.60
14851;BMP180;7517;48.400;11.770;2023-05-07T03:27:20;96366.00;;;15.60
14851;BMP180;7517;48.400;11.770;2023-05-07T03:29:49;96370.00;;;15.50
14851;BMP180;7517;48.400;11.770;2023-05-07T03:32:16;96375.00;;;15.50
14851;BMP180;7517;48.400;11.770;2023-05-07T03:34:43;96380.00;;;15.50
14851;BMP180;7517;48.400;11.770;2023-05-07T03:37:12;96370.00;;;15.50
14851;BMP180;7517;48.400;11.770;2023-05-07T03:39:39;96371.00;;;15.50
14851;BMP180;7517;48.400;11.770;2023-05-07T03:42:06;96376.00;;;15.50
14851;BMP180;7517;48.400;11.770;2023-05-07T03:44:33;96366.00;;;15.50
14851;BMP180;7517;48.400;11.770;2023-05-07T03:47:02;96365.00;;;15.50
14851;BMP180;7517;48.400;11.770;2023-05-07T03:49:29;96356.00;;;15.40
14851;BMP180;7517;48.400;11.770;2023-05-07T03:51:56;96365.00;;;15.40
14851;BMP180;7517;48.400;11.770;2023-05-07T03:54:25;96365.00;;;15.40
14851;BMP180;7517;48.400;11.770;2023-05-07T03:56:52;96370.00;;;15.40
14851;BMP180;7517;48.400;11.770;2023-05-07T03:59:19;96367.00;;;15.50
14851;BMP180;7517;48.400;11.770;2023-05-07T04:01:46;96373.00;;;15.40
14851;BMP180;7517;48.400;11.770;2023-05-07T04:04:14;96373.00;;;15.40
14851;BMP180;7517;48.400;11.770;2023-05-07T04:06:42;96375.00;;;15.40
14851;BMP180;7517;48.400;11.770;2023-05-07T04:09:09;96372.00;;;15.40
14851;BMP180;7517;48.400;11.770;2023-05-07T04:11:37;96386.00;;;15.40
14851;BMP180;7517;48.400;11.770;2023-05-07T04:14:05;96393.00;;;15.40
14851;BMP180;7517;48.400;11.770;2023-05-07T04:16:34;96390.00;;;15.40
14851;BMP180;7517;48.400;11.770;2023-05-07T04:19:01;96392.00;;;15.40
14851;BMP180;7517;48.400;11.770;2023-05-07T04:21:28;96399.00;;;15.30
14851;BMP180;7517;48.400;11.770;2023-05-07T04:23:56;96395.00;;;15.30
14851;BMP180;7517;48.400;11.770;2023-05-07T04:26:25;96395.00;;;15.30
14851;BMP180;7517;48.400;11.770;2023-05-07T04:28:58;96409.00;;;15.30
14851;BMP180;7517;48.400;11.770;2023-05-07T04:31:26;96396.00;;;15.30
14851;BMP180;7517;48.400;11.770;2023-05-07T04:33:55;96398.00;;;15.30
14851;BMP180;7517;48.400;11.770;2023-05-07T04:36:22;96408.00;;;15.30
14851;BMP180;7517;48.400;11.770;2023-05-07T04:38:53;96386.00;;;15.20
14851;BMP180;7517;48.400;11.770;2023-05-07T04:41:20;96396.00;;;15.30
14851;BMP180;7517;48.400;11.770;2023-05-07T04:43:47;96400.00;;;15.30
14851;BMP180;7517;48.400;11.770;2023-05-07T04:46:16;96403.00;;;15.30
14851;BMP180;7517;48.400;11.770;2023-05-07T04:48:45;96406.00;;;15.30
14851;BMP180;7517;48.400;11.770;2023-05-07T04:51:13;96402.00;;;15.30
14851;BMP180;7517;48.400;11.770;2023-05-07T04:53:41;96407.00;;;15.30
14851;BMP180;7517;48.400;11.770;2023-05-07T04:56:09;96390.00;;;15.30
14851;BMP180;7517;48.400;11.770;2023-05-07T04:58:36;96398.00;;;15.40
14851;BMP180;7517;48.400;11.770;2023-05-07T05:01:04;96392.00;;;15.40
14851;BMP180;7517;48.400;11.770;2023-05-07T05:03:33;96400.00;;;15.40
14851;BMP180;7517;48.400;11.770;2023-05-07T05:06:00;96408.00;;;15.50
14851;BMP180;7517;48.400;11.770;2023-05-07T05:08:31;96401.00;;;15.50
14851;BMP180;7517;48.400;11.770;2023-05-07T05:10:58;96410.00;;;15.50
14851;BMP180;7517;48.400;11.770;2023-05-07T05:13:25;96414.00;;;15.60
14851;BMP180;7517;48.400;11.770;2023-05-07T05:15:52;96419.00;;;15.60
14851;BMP180;7517;48.400;11.770;2023-05-07T05:18:20;96420.00;;;15.70
14851;BMP180;7517;48.400;11.770;2023-05-07T05:20:48;96423.00;;;15.70
14851;BMP180;7517;48.400;11.770;2023-05-07T05:23:16;96419.00;;;15.80
14851;BMP180;7517;48.400;11.770;2023-05-07T05:25:43;96412.00;;;15.80
14851;BMP180;7517;48.400;11.770;2023-05-07T05:28:10;96414.00;;;15.90
14851;BMP180;7517;48.400;11.770;2023-05-07T05:30:39;96413.00;;;16.00
14851;BMP180;7517;48.400;11.770;2023-05-07T05:33:06;96417.00;;;16.00
14851;BMP180;7517;48.400;11.770;2023-05-07T05:35:34;96421.00;;;16.10
14851;BMP180;7517;48.400;11.770;2023-05-07T05:38:02;96408.00;;;16.20
14851;BMP180;7517;48.400;11.770;2023-05-07T05:40:30;96424.00;;;16.30
14851;BMP180;7517;48.400;11.770;2023-05-07T05:42:57;96419.00;;;16.40
14851;BMP180;7517;48.400;11.770;2023-05-07T05:45:25;96417.00;;;16.50
14851;BMP180;7517;48.400;11.770;2023-05-07T05:47:52;96417.00;;;16.50
14851;BMP180;7517;48.400;11.770;2023-05-07T05:50:20;96423.00;;;16.60
14851;BMP180;7517;48.400;11.770;2023-05-07T05:52:47;96413.00;;;16.70
14851;BMP180;7517;48.400;11.770;2023-05-07T05:55:16;96412.00;;;16.70
14851;BMP180;7517;48.400;11.770;2023-05-07T05:57:44;96419.00;;;16.80
14851;BMP180;7517;48.400;11.770;2023-05-07T06:00:12;96415.00;;;16.80
14851;BMP180;7517;48.400;11.770;2023-05-07T06:02:40;96424.00;;;16.90
14851;BMP180;7517;48.400;11.770;2023-05-07T06:05:09;96414.00;;;16.90
14851;BMP180;7517;48.400;11.770;2023-05-07T06:07:37;96421.00;;;17.00
14851;BMP180;7517;48.400;11.770;2023-05-07T06:10:06;96415.00;;;17.00
14851;BMP180;7517;48.400;11.770;2023-05-07T06:12:35;96416.00;;;17.10
14851;BMP180;7517;48.400;11.770;2023-05-07T06:15:03;96425.00;;;17.20
14851;BMP180;7517;48.400;11.770;2023-05-07T06:17:30;96426.00;;;17.20
14851;BMP180;7517;48.400;11.770;2023-05-07T06:19:58;96434.00;;;17.30
14851;BMP180;7517;48.400;11.770;2023-05-07T06:22:25;96431.00;;;17.30
14851;BMP180;7517;48.400;11.770;2023-05-07T06:24:53;96429.00;;;17.40
14851;BMP180;7517;48.400;11.770;2023-05-07T06:27:21;96430.00;;;17.40
14851;BMP180;7517;48.400;11.770;2023-05-07T06:29:49;96433.00;;;17.50
14851;BMP180;7517;48.400;11.770;2023-05-07T06:32:18;96433.00;;;17.60
14851;BMP180;7517;48.400;11.770;2023-05-07T06:34:45;96439.00;;;17.60
14851;BMP180;7517;48.400;11.770;2023-05-07T06:37:13;96443.00;;;17.70
14851;BMP180;7517;48.400;11.770;2023-05-07T06:39:40;96441.00;;;17.80
14851;BMP180;7517;48.400;11.770;2023-05-07T06:42:08;96441.00;;;17.80
14851;BMP180;7517;48.400;11.770;2023-05-07T06:44:35;96452.00;;;17.90
14851;BMP180;7517;48.400;11.770;2023-05-07T06:47:04;96445.00;;;18.00
14851;BMP180;7517;48.400;11.770;2023-05-07T06:49:32;96452.00;;;18.10
14851;BMP180;7517;48.400;11.770;2023-05-07T06:51:59;96456.00;;;18.20
14851;BMP180;7517;48.400;11.770;2023-05-07T06:54:27;96458.00;;;18.30
14851;BMP180;7517;48.400;11.770;2023-05-07T06:56:54;96461.00;;;18.40
14851;BMP180;7517;48.400;11.770;2023-05-07T06:59:23;96459.00;;;18.50
14851;BMP180;7517;48.400;11.770;2023-05-07T07:01:50;96456.00;;;18.60
14851;BMP180;7517;48.400;11.770;2023-05-07T07:04:19;96460.00;;;18.70
14851;BMP180;7517;48.400;11.770;2023-05-07T07:06:48;96463.00;;;18.80
14851;BMP180;7517;48.400;11.770;2023-05-07T07:09:15;96462.00;;;19.00
14851;BMP180;7517;48.400;11.770;2023-05-07T07:11:42;96464.00;;;19.10
14851;BMP180;7517;48.400;11.770;2023-05-07T07:14:09;96465.00;;;19.30
14851;BMP180;7517;48.400;11.770;2023-05-07T07:16:36;96465.00;;;19.50
14851;BMP180;7517;48.400;11.770;2023-05-07T07:19:04;96479.00;;;19.70
14851;BMP180;7517;48.400;11.770;2023-05-07T07:21:33;96484.00;;;19.90
14851;BMP180;7517;48.400;11.770;2023-05-07T07:24:00;96477.00;;;20.10
14851;BMP180;7517;48.400;11.770;2023-05-07T07:26:27;96472.00;;;20.40
14851;BMP180;7517;48.400;11.770;2023-05-07T07:28:55;96483.00;;;20.50
14851;BMP180;7517;48.400;11.770;2023-05-07T07:31:22;96478.00;;;20.70
14851;BMP180;7517;48.400;11.770;2023-05-07T07:33:49;96486.00;;;20.90
14851;BMP180;7517;48.400;11.770;2023-05-07T07:36:17;96478.00;;;21.00
14851;BMP180;7517;48.400;11.770;2023-05-07T07:38:45;96480.00;;;21.20
14851;BMP180;7517;48.400;11.770;2023-05-07T07:41:13;96483.00;;;21.40
14851;BMP180;7517;48.400;11.770;2023-05-07T07:43:40;96473.00;;;21.60
14851;BMP180;7517;48.400;11.770;2023-05-07T07:46:07;96477.00;;;21.80
14851;BMP180;7517;48.400;11.770;2023-05-07T07:48:35;96473.00;;;21.90
14851;BMP180;7517;48.400;11.770;2023-05-07T07:51:03;96485.00;;;22.20
14851;BMP180;7517;48.400;11.770;2023-05-07T07:53:30;96483.00;;;22.30
14851;BMP180;7517;48.400;11.770;2023-05-07T07:56:01;96486.00;;;22.50
14851;BMP180;7517;48.400;11.770;2023-05-07T07:58:29;96490.00;;;22.70
14851;BMP180;7517;48.400;11.770;2023-05-07T08:00:56;96492.00;;;22.90
14851;BMP180;7517;48.400;11.770;2023-05-07T08:03:23;96493.00;;;23.10
14851;BMP180;7517;48.400;11.770;2023-05-07T08:05:50;96489.00;;;23.30
14851;BMP180;7517;48.400;11.770;2023-05-07T08:08:18;96488.00;;;23.50
14851;BMP180;7517;48.400;11.770;2023-05-07T08:10:45;96494.00;;;23.70
14851;BMP180;7517;48.400;11.770;2023-05-07T08:13:17;96494.00;;;23.90
14851;BMP180;7517;48.400;11.770;2023-05-07T08:15:46;96494.00;;;24.10
14851;BMP180;7517;48.400;11.770;2023-05-07T08:18:13;96501.00;;;24.30
14851;BMP180;7517;48.400;11.770;2023-05-07T08:20:41;96501.00;;;24.50
14851;BMP180;7517;48.400;11.770;2023-05-07T08:23:08;96509.00;;;24.70
14851;BMP180;7517;48.400;11.770;2023-05-07T08:25:36;96498.00;;;24.90
14851;BMP180;7517;48.400;11.770;2023-05-07T08:28:03;96496.00;;;25.20
14851;BMP180;7517;48.400;11.770;2023-05-07T08:30:32;96504.00;;;25.40
14851;BMP180;7517;48.400;11.770;2023-05-07T08:33:00;96507.00;;;25.60
14851;BMP180;7517;48.400;11.770;2023-05-07T08:35:27;96503.00;;;25.80
14851;BMP180;7517;48.400;11.770;2023-05-07T08:37:55;96511.00;;;26.10
14851;BMP180;7517;48.400;11.770;2023-05-07T08:40:26;96504.00;;;26.30
14851;BMP180;7517;48.400;11.770;2023-05-07T08:42:53;96507.00;;;26.50
14851;BMP180;7517;48.400;11.770;2023-05-07T08:45:21;96513.00;;;26.70
14851;BMP180;7517;48.400;11.770;2023-05-07T08:47:56;96510.00;;;26.90
14851;BMP180;7517;48.400;11.770;2023-05-07T08:50:25;96508.00;;;27.10
14851;BMP180;7517;48.400;11.770;2023-05-07T08:52:52;96510.00;;;27.20
14851;BMP180;7517;48.400;11.770;2023-05-07T08:55:20;96513.00;;;27.40
14851;BMP180;7517;48.400;11.770;2023-05-07T08:57:48;96503.00;;;27.60
14851;BMP180;7517;48.400;11.770;2023-05-07T09:00:18;96506.00;;;27.80
14851;BMP180;7517;48.400;11.770;2023-05-07T09:02:46;96513.00;;;28.00
14851;BMP180;7517;48.400;11.770;2023-05-07T09:05:15;96504.00;;;28.20
14851;BMP180;7517;48.400;11.770;2023-05-07T09:07:42;96514.00;;;28.30
14851;BMP180;7517;48.400;11.770;2023-05-07T09:10:10;96519.00;;;28.50
14851;BMP180;7517;48.400;11.770;2023-05-07T09:12:38;96518.00;;;28.70
14851;BMP180;7517;48.400;11.770;2023-05-07T09:15:07;96524.00;;;28.90
14851;BMP180;7517;48.400;11.770;2023-05-07T09:17:34;96521.00;;;29.20
14851;BMP180;7517;48.400;11.770;2023-05-07T09:20:06;96525.00;;;29.50
14851;BMP180;7517;48.400;11.770;2023-05-07T09:22:36;96521.00;;;29.80
14851;BMP180;7517;48.400;11.770;2023-05-07T09:25:06;96520.00;;;30.00
14851;BMP180;7517;48.400;11.770;2023-05-07T09:27:34;96523.00;;;30.30
14851;BMP180;7517;48.400;11.770;2023-05-07T09:30:04;96524.00;;;30.50
14851;BMP180;7517;48.400;11.770;2023-05-07T09:32:35;96518.00;;;30.80
14851;BMP180;7517;48.400;11.770;2023-05-07T09:35:04;96530.00;;;31.00
14851;BMP180;7517;48.400;11.770;2023-05-07T09:37:36;96525.00;;;31.30
14851;BMP180;7517;48.400;11.770;2023-05-07T09:40:05;96531.00;;;31.50
14851;BMP180;7517;48.400;11.770;2023-05-07T09:42:33;96527.00;;;31.80
14851;BMP180;7517;48.400;11.770;2023-05-07T09:45:01;96521.00;;;32.10
14851;BMP180;7517;48.400;11.770;2023-05-07T09:47:37;96522.00;;;32.30
14851;BMP180;7517;48.400;11.770;2023-05-07T09:50:10;96521.00;;;32.50
14851;BMP180;7517;48.400;11.770;2023-05-07T09:52:47;96521.00;;;32.60
14851;BMP180;7517;48.400;11.770;2023-05-07T09:55:16;96531.00;;;32.60
14851;BMP180;7517;48.400;11.770;2023-05-07T09:57:50;96530.00;;;32.60
14851;BMP180;7517;48.400;11.770;2023-05-07T10:00:21;96529.00;;;32.50
14851;BMP180;7517;48.400;11.770;2023-05-07T10:02:52;96523.00;;;32.50
14851;BMP180;7517;48.400;11.770;2023-05-07T10:05:22;96525.00;;;32.60
14851;BMP180;7517;48.400;11.770;2023-05-07T10:07:51;96529.00;;;32.70
14851;BMP180;7517;48.400;11.770;2023-05-07T10:10:21;96523.00;;;32.80
14851;BMP180;7517;48.400;11.770;2023-05-07T10:12:50;96520.00;;;32.80
14851;BMP180;7517;48.400;11.770;2023-05-07T10:15:19;96523.00;;;32.60
14851;BMP180;7517;48.400;11.770;2023-05-07T10:17:49;96529.00;;;32.30
14851;BMP180;7517;48.400;11.770;2023-05-07T10:20:17;96526.00;;;32.10
14851;BMP180;7517;48.400;11.770;2023-05-07T10:22:47;96528.00;;;32.00
14851;BMP180;7517;48.400;11.770;2023-05-07T10:25:20;96525.00;;;32.00
14851;BMP180;7517;48.400;11.770;2023-05-07T10:27:49;96527.00;;;32.00
14851;BMP180;7517;48.400;11.770;2023-05-07T10:30:27;96521.00;;;31.90
14851;BMP180;7517;48.400;11.770;2023-05-07T10:33:01;96525.00;;;31.90
14851;BMP180;7517;48.400;11.770;2023-05-07T10:35:38;96530.00;;;31.80
14851;BMP180;7517;48.400;11.770;2023-05-07T10:38:07;96532.00;;;31.70
14851;BMP180;7517;48.400;11.770;2023-05-07T10:40:37;96516.00;;;31.60
14851;BMP180;7517;48.400;11.770;2023-05-07T10:43:05;96524.00;;;31.60
14851;BMP180;7517;48.400;11.770;2023-05-07T10:45:33;96520.00;;;31.40
14851;BMP180;7517;48.400;11.770;2023-05-07T10:48:12;96520.00;;;31.30
14851;BMP180;7517;48.400;11.770;2023-05-07T10:50:41;96528.00;;;31.20
14851;BMP180;7517;48.400;11.770;2023-05-07T10:53:29;96516.00;;;31.10
14851;BMP180;7517;48.400;11.770;2023-05-07T10:56:30;96517.00;;;30.90
14851;BMP180;7517;48.400;11.770;2023-05-07T10:59:31;96521.00;;;30.70
14851;BMP180;7517;48.400;11.770;2023-05-07T11:02:00;96518.00;;;30.60
14851;BMP180;7517;48.400;11.770;2023-05-07T11:04:30;96519.00;;;30.50
14851;BMP180;7517;48.400;11.770;2023-05-07T11:07:29;96520.00;;;30.30
14851;BMP180;7517;48.400;11.770;2023-05-07T11:10:06;96516.00;;;30.20
14851;BMP180;7517;48.400;11.770;2023-05-07T11:12:54;96524.00;;;30.10
14851;BMP180;7517;48.400;11.770;2023-05-07T11:15:38;96518.00;;;30.00
14851;BMP180;7517;48.400;11.770;2023-05-07T11:18:05;96518.00;;;29.80
14851;BMP180;7517;48.400;11.770;2023-05-07T11:20:57;96522.00;;;29.60
14851;BMP180;7517;48.400;11.770;2023-05-07T11:23:58;96509.00;;;29.40
14851;BMP180;7517;48.400;11.770;2023-05-07T11:26:46;96512.00;;;29.20
14851;BMP180;7517;48.400;11.770;2023-05-07T11:29:18;96511.00;;;29.10
14851;BMP180;7517;48.400;11.770;2023-05-07T11:31:49;96508.00;;;29.00
14851;BMP180;7517;48.400;11.770;2023-05-07T11:34:22;96505.00;;;28.90
14851;BMP180;7517;48.400;11.770;2023-05-07T11:36:58;96506.00;;;28.80
14851;BMP180;7517;48.400;11.770;2023-05-07T11:39:29;96505.00;;;28.70
14851;BMP180;7517;48.400;11.770;2023-05-07T11:41:57;96492.00;;;28.60
14851;BMP180;7517;48.400;11.770;2023-05-07T11:44:42;96496.00;;;28.50
14851;BMP180;7517;48.400;11.770;2023-05-07T11:47:10;96505.00;;;28.50
14851;BMP180;7517;48.400;11.770;2023-05-07T11:49:38;96495.00;;;28.40
14851;BMP180;7517;48.400;11.770;2023-05-07T11:52:07;96499.00;;;28.40
14851;BMP180;7517;48.400;11.770;2023-05-07T11:54:37;96499.00;;;28.30
14851;BMP180;7517;48.400;11.770;2023-05-07T11:57:04;96496.00;;;28.30
14851;BMP180;7517;48.400;11.770;2023-05-07T11:59:40;96490.00;;;28.20
14851;BMP180;7517;48.400;11.770;2023-05-07T12:02:13;96484.00;;;28.20
14851;BMP180;7517;48.400;11.770;2023-05-07T12:04:42;96487.00;;;28.20
14851;BMP180;7517;48.400;11.770;2023-05-07T12:07:12;96498.00;;;28.20
14851;BMP180;7517;48.400;11.770;2023-05-07T12:09:40;96493.00;;;28.20
14851;BMP180;7517;48.400;11.770;2023-05-07T12:12:07;96495.00;;;28.20
14851;BMP180;7517;48.400;11.770;2023-05-07T12:14:40;96495.00;;;28.20
14851;BMP180;7517;48.400;11.770;2023-05-07T12:17:08;96496.00;;;28.20
14851;BMP180;7517;48.400;11.770;2023-05-07T12:19:37;96490.00;;;28.20
14851;BMP180;7517;48.400;11.770;2023-05-07T12:22:07;96483.00;;;28.20
14851;BMP180;7517;48.400;11.770;2023-05-07T12:24:44;96478.00;;;28.10
14851;BMP180;7517;48.400;11.770;2023-05-07T12:27:12;96471.00;;;28.10
14851;BMP180;7517;48.400;11.770;2023-05-07T12:29:46;96475.00;;;28.10
14851;BMP180;7517;48.400;11.770;2023-05-07T12:32:19;96464.00;;;28.10
14851;BMP180;7517;48.400;11.770;2023-05-07T12:34:50;96473.00;;;28.10
14851;BMP180;7517;48.400;11.770;2023-05-07T12:37:23;96469.00;;;28.10
14851;BMP180;7517;48.400;11.770;2023-05-07T12:40:04;96461.00;;;28.00
14851;BMP180;7517;48.400;11.770;2023-05-07T12:42:35;96471.00;;;28.00
14851;BMP180;7517;48.400;11.770;2023-05-07T12:45:10;96467.00;;;28.00
14851;BMP180;7517;48.400;11.770;2023-05-07T12:47:37;96470.00;;;28.10
14851;BMP180;7517;48.400;11.770;2023-05-07T12:50:06;96463.00;;;28.10
14851;BMP180;7517;48.400;11.770;2023-05-07T12:52:34;96455.00;;;28.10
14851;BMP180;7517;48.400;11.770;2023-05-07T12:55:08;96449.00;;;28.10
14851;BMP180;7517;48.400;11.770;2023-05-07T12:57:39;96457.00;;;28.10
14851;BMP180;7517;48.400;11.770;2023-05-07T13:00:10;96448.00;;;28.10
14851;BMP180;7517;48.400;11.770;2023-05-07T13:02:39;96444.00;;;28.20
14851;BMP180;7517;48.400;11.770;2023-05-07T13:05:08;96445.00;;;28.20
14851;BMP180;7517;48.400;11.770;2023-05-07T13:07:35;96445.00;;;28.20
14851;BMP180;7517;48.400;11.770;2023-05-07T13:10:04;96448.00;;;28.20
14851;BMP180;7517;48.400;11.770;2023-05-07T13:12:32;96448.00;;;28.20
14851;BMP180;7517;48.400;11.770;2023-05-07T13:14:59;96441.00;;;28.20
14851;BMP180;7517;48.400;11.770;2023-05-07T13:17:28;96445.00;;;28.20
14851;BMP180;7517;48.400;11.770;2023-05-07T13:19:56;96443.00;;;28.20
14851;BMP180;7517;48.400;11.770;2023-05-07T13:22:24;96453.00;;;28.20
14851;BMP180;7517;48.400;11.770;2023-05-07T13:24:51;96447.00;;;28.20
14851;BMP180;7517;48.400;11.770;2023-05-07T13:27:18;96433.00;;;28.20
14851;BMP180;7517;48.400;11.770;2023-05-07T13:29:46;96445.00;;;28.10
14851;BMP180;7517;48.400;11.770;2023-05-07T13:32:13;96446.00;;;28.10
14851;BMP180;7517;48.400;11.770;2023-05-07T13:34:42;96443.00;;;28.10
14851;BMP180;7517;48.400;11.770;2023-05-07T13:37:09;96446.00;;;28.10
14851;BMP180;7517;48.400;11.770;2023-05-07T13:39:36;96449.00;;;28.00
14851;BMP180;7517;48.400;11.770;2023-05-07T13:42:04;96446.00;;;28.00
14851;BMP180;7517;48.400;11.770;2023-05-07T13:44:31;96444.00;;;28.00
14851;BMP180;7517;48.400;11.770;2023-05-07T13:46:58;96435.00;;;28.00
14851;BMP180;7517;48.400;11.770;2023-05-07T13:49:26;96426.00;;;28.00
14851;BMP180;7517;48.400;11.770;2023-05-07T13:51:55;96432.00;;;28.00
14851;BMP180;7517;48.400;11.770;2023-05-07T13:54:23;96439.00;;;28.00
14851;BMP180;7517;48.400;11.770;2023-05-07T13:56:50;96444.00;;;28.00
14851;BMP180;7517;48.400;11.770;2023-05-07T13:59:17;96443.00;;;28.00
14851;BMP180;7517;48.400;11.770;2023-05-07T14:01:45;96444.00;;;28.00
14851;BMP180;7517;48.400;11.770;2023-05-07T14:04:13;96447.00;;;28.00
14851;BMP180;7517;48.400;11.770;2023-05-07T14:06:40;96442.00;;;28.00
14851;BMP180;7517;48.400;11.770;2023-05-07T14:09:09;96449.00;;;27.90
14851;BMP180;7517;48.400;11.770;2023-05-07T14:11:39;96443.00;;;27.90
14851;BMP180;7517;48.400;11.770;2023-05-07T14:14:06;96447.00;;;27.90
14851;BMP180;7517;48.400;11.770;2023-05-07T14:16:33;96450.00;;;27.90
14851;BMP180;7517;48.400;11.770;2023-05-07T14:19:00;96456.00;;;27.90
14851;BMP180;7517;48.400;11.770;2023-05-07T14:21:28;96447.00;;;27.90